createdAt,value
2023-05-06T00:00:23.057Z,1016.80
2023-05-06T00:01:26.383Z,1016.80
2023-05-06T00:02:29.706Z,1016.79
2023-05-06T00:04:05.994Z,1016.78
2023-05-06T00:05:09.577Z,1016.77
2023-05-06T00:06:12.718Z,1016.76
2023-05-06T00:07:47.627Z,1016.67
2023-05-06T00:08:50.692Z,1016.70
2023-05-06T00:09:53.688Z,1016.66
2023-05-06T00:11:28.310Z,1016.68
2023-05-06T00:12:31.104Z,1016.69
2023-05-06T00:13:34.236Z,1016.70
2023-05-06T00:15:09.430Z,1016.74
2023-05-06T00:16:12.546Z,1016.71
2023-05-06T00:17:15.613Z,1016.70
2023-05-06T00:18:50.306Z,1016.70
2023-05-06T00:19:53.225Z,1016.69
2023-05-06T00:20:56.518Z,1016.67
2023-05-06T00:22:31.439Z,1016.64
2023-05-06T00:23:34.498Z,1016.69
2023-05-06T00:24:37.506Z,1016.65
2023-05-06T00:26:12.772Z,1016.66
2023-05-06T00:27:15.796Z,1016.69
2023-05-06T00:28:19.084Z,1016.70
2023-05-06T00:29:53.802Z,1016.72
2023-05-06T00:30:56.654Z,1016.66
2023-05-06T00:31:59.797Z,1016.70
2023-05-06T00:33:35.256Z,1016.64
2023-05-06T00:34:38.406Z,1016.58
2023-05-06T00:35:41.521Z,1016.56
2023-05-06T00:37:16.304Z,1016.62
2023-05-06T00:38:19.433Z,1016.61
2023-05-06T00:39:22.611Z,1016.65
2023-05-06T00:40:57.430Z,1016.64
2023-05-06T00:42:00.422Z,1016.66
2023-05-06T00:43:03.466Z,1016.65
2023-05-06T00:44:38.632Z,1016.66
2023-05-06T00:45:41.674Z,1016.65
2023-05-06T00:46:45.000Z,1016.65
2023-05-06T00:48:19.980Z,1016.65
2023-05-06T00:49:23.021Z,1016.67
2023-05-06T00:50:26.141Z,1016.65
2023-05-06T00:52:01.004Z,1016.69
2023-05-06T00:53:03.983Z,1016.65
2023-05-06T00:54:07.205Z,1016.65
2023-05-06T00:55:42.321Z,1016.66
2023-05-06T00:56:45.282Z,1016.66
2023-05-06T00:57:48.244Z,1016.63
2023-05-06T00:59:23.016Z,1016.58
2023-05-06T01:00:23.993Z,1016.60
2023-05-06T01:01:27.418Z,1016.61
2023-05-06T01:02:47.895Z,1016.63
2023-05-06T01:04:24.205Z,1016.60
2023-05-06T01:05:28.141Z,1016.62
2023-05-06T01:06:31.173Z,1016.63
2023-05-06T01:08:05.909Z,1016.55
2023-05-06T01:09:08.896Z,1016.54
2023-05-06T01:10:11.924Z,1016.52
2023-05-06T01:11:46.663Z,1016.53
2023-05-06T01:12:49.975Z,1016.52
2023-05-06T01:13:53.132Z,1016.51
2023-05-06T01:15:27.925Z,1016.47
2023-05-06T01:16:31.260Z,1016.47
2023-05-06T01:17:34.406Z,1016.50
2023-05-06T01:19:09.473Z,1016.53
2023-05-06T01:20:12.325Z,1016.53
2023-05-06T01:21:15.334Z,1016.53
2023-05-06T01:22:50.156Z,1016.54
2023-05-06T01:23:53.276Z,1016.53
2023-05-06T01:24:56.143Z,1016.57
2023-05-06T01:26:31.455Z,1016.59
2023-05-06T01:27:34.392Z,1016.62
2023-05-06T01:28:37.509Z,1016.64
2023-05-06T01:30:12.681Z,1016.64
2023-05-06T01:31:15.756Z,1016.65
2023-05-06T01:32:19.238Z,1016.63
2023-05-06T01:33:54.369Z,1016.60
2023-05-06T01:34:57.239Z,1016.61
2023-05-06T01:36:00.885Z,1016.63
2023-05-06T01:37:35.876Z,1016.64
2023-05-06T01:38:38.866Z,1016.62
2023-05-06T01:39:41.982Z,1016.65
2023-05-06T01:41:16.721Z,1016.63
2023-05-06T01:42:19.701Z,1016.59
2023-05-06T01:43:22.795Z,1016.62
2023-05-06T01:44:57.790Z,1016.58
2023-05-06T01:46:01.471Z,1016.58
2023-05-06T01:47:04.767Z,1016.58
2023-05-06T01:48:39.923Z,1016.62
2023-05-06T01:49:43.141Z,1016.60
2023-05-06T01:50:46.524Z,1016.60
2023-05-06T01:52:21.614Z,1016.64
2023-05-06T01:53:24.769Z,1016.61
2023-05-06T01:54:27.632Z,1016.55
2023-05-06T01:56:02.473Z,1016.57
2023-05-06T01:57:05.466Z,1016.55
2023-05-06T01:58:08.354Z,1016.50
2023-05-06T01:59:43.029Z,1016.51
2023-05-06T02:01:26.531Z,1016.49
2023-05-06T02:02:29.979Z,1016.51
2023-05-06T02:04:07.187Z,1016.55
2023-05-06T02:05:10.668Z,1016.57
2023-05-06T02:06:13.855Z,1016.56
2023-05-06T02:07:48.838Z,1016.62
2023-05-06T02:08:52.320Z,1016.63
2023-05-06T02:09:55.461Z,1016.60
2023-05-06T02:11:30.230Z,1016.60
2023-05-06T02:12:33.273Z,1016.61
2023-05-06T02:13:36.433Z,1016.59
2023-05-06T02:15:11.286Z,1016.58
2023-05-06T02:16:14.648Z,1016.55
2023-05-06T02:17:18.123Z,1016.55
2023-05-06T02:18:53.114Z,1016.54
2023-05-06T02:19:56.010Z,1016.57
2023-05-06T02:20:59.097Z,1016.54
2023-05-06T02:22:33.896Z,1016.58
2023-05-06T02:23:36.888Z,1016.55
2023-05-06T02:24:40.163Z,1016.57
2023-05-06T02:26:14.904Z,1016.55
2023-05-06T02:27:17.732Z,1016.56
2023-05-06T02:28:20.840Z,1016.58
2023-05-06T02:29:55.533Z,1016.51
2023-05-06T02:30:58.574Z,1016.50
2023-05-06T02:32:01.831Z,1016.49
2023-05-06T02:33:36.760Z,1016.48
2023-05-06T02:34:39.693Z,1016.48
2023-05-06T02:35:42.820Z,1016.47
2023-05-06T02:37:17.674Z,1016.47
2023-05-06T02:38:20.928Z,1016.45
2023-05-06T02:39:24.270Z,1016.46
2023-05-06T02:40:59.245Z,1016.48
2023-05-06T02:42:02.269Z,1016.46
2023-05-06T02:43:05.611Z,1016.47
2023-05-06T02:44:40.716Z,1016.50
2023-05-06T02:45:43.849Z,1016.49
2023-05-06T02:46:46.829Z,1016.54
2023-05-06T02:48:21.617Z,1016.52
2023-05-06T02:49:24.624Z,1016.52
2023-05-06T02:50:27.756Z,1016.52
2023-05-06T02:52:02.617Z,1016.54
2023-05-06T02:53:05.548Z,1016.54
2023-05-06T02:54:08.811Z,1016.56
2023-05-06T02:55:43.937Z,1016.51
2023-05-06T02:56:46.988Z,1016.55
2023-05-06T02:57:50.174Z,1016.54
2023-05-06T02:59:25.027Z,1016.53
2023-05-06T03:00:23.134Z,1016.52
2023-05-06T03:01:26.104Z,1016.51
2023-05-06T03:02:29.009Z,1016.51
2023-05-06T03:04:04.172Z,1016.51
2023-05-06T03:05:07.244Z,1016.51
2023-05-06T03:06:10.346Z,1016.49
2023-05-06T03:07:45.428Z,1016.51
2023-05-06T03:08:48.713Z,1016.52
2023-05-06T03:09:51.978Z,1016.49
2023-05-06T03:11:26.753Z,1016.51
2023-05-06T03:12:30.009Z,1016.52
2023-05-06T03:13:33.331Z,1016.52
2023-05-06T03:15:08.349Z,1016.51
2023-05-06T03:16:11.625Z,1016.53
2023-05-06T03:17:14.800Z,1016.50
2023-05-06T03:18:49.544Z,1016.58
2023-05-06T03:19:52.489Z,1016.54
2023-05-06T03:20:55.384Z,1016.54
2023-05-06T03:22:30.510Z,1016.54
2023-05-06T03:23:33.497Z,1016.51
2023-05-06T03:24:36.542Z,1016.51
2023-05-06T03:26:11.578Z,1016.51
2023-05-06T03:27:14.652Z,1016.49
2023-05-06T03:28:17.704Z,1016.50
2023-05-06T03:29:52.898Z,1016.50
2023-05-06T03:30:55.990Z,1016.48
2023-05-06T03:31:59.434Z,1016.51
2023-05-06T03:33:34.853Z,1016.48
2023-05-06T03:34:37.766Z,1016.45
2023-05-06T03:35:40.732Z,1016.44
2023-05-06T03:37:15.640Z,1016.43
2023-05-06T03:38:18.643Z,1016.42
2023-05-06T03:39:21.786Z,1016.44
2023-05-06T03:40:56.485Z,1016.41
2023-05-06T03:41:59.380Z,1016.41
2023-05-06T03:43:05.076Z,1016.39
2023-05-06T03:44:40.218Z,1016.41
2023-05-06T03:45:43.213Z,1016.40
2023-05-06T03:46:46.778Z,1016.42
2023-05-06T03:48:22.231Z,1016.43
2023-05-06T03:49:25.287Z,1016.41
2023-05-06T03:50:28.433Z,1016.44
2023-05-06T03:52:03.124Z,1016.44
2023-05-06T03:53:06.146Z,1016.41
2023-05-06T03:54:08.999Z,1016.44
2023-05-06T03:55:43.567Z,1016.41
2023-05-06T03:56:46.408Z,1016.48
2023-05-06T03:57:49.417Z,1016.49
2023-05-06T03:59:24.285Z,1016.51
2023-05-06T04:00:23.699Z,1016.49
2023-05-06T04:01:26.732Z,1016.51
2023-05-06T04:02:30.209Z,1016.51
2023-05-06T04:04:06.373Z,1016.44
2023-05-06T04:05:53.435Z,1016.43
2023-05-06T04:06:56.603Z,1016.43
2023-05-06T04:07:59.823Z,1016.39
2023-05-06T04:09:34.939Z,1016.39
2023-05-06T04:10:37.883Z,1016.39
2023-05-06T04:11:41.348Z,1016.39
2023-05-06T04:13:16.529Z,1016.41
2023-05-06T04:14:19.980Z,1016.38
2023-05-06T04:15:23.586Z,1016.35
2023-05-06T04:16:58.465Z,1016.38
2023-05-06T04:18:01.538Z,1016.38
2023-05-06T04:19:06.504Z,1016.39
2023-05-06T04:20:41.878Z,1016.44
2023-05-06T04:21:44.745Z,1016.40
2023-05-06T04:22:48.006Z,1016.37
2023-05-06T04:24:23.213Z,1016.42
2023-05-06T04:25:26.319Z,1016.42
2023-05-06T04:26:29.468Z,1016.44
2023-05-06T04:28:04.011Z,1016.45
2023-05-06T04:29:07.104Z,1016.45
2023-05-06T04:30:10.114Z,1016.47
2023-05-06T04:31:45.053Z,1016.52
2023-05-06T04:32:48.525Z,1016.51
2023-05-06T04:33:51.626Z,1016.49
2023-05-06T04:35:26.239Z,1016.52
2023-05-06T04:36:29.129Z,1016.56
2023-05-06T04:37:32.786Z,1016.57
2023-05-06T04:39:07.233Z,1016.58
2023-05-06T04:40:10.081Z,1016.59
2023-05-06T04:41:13.007Z,1016.59
2023-05-06T04:42:48.186Z,1016.65
2023-05-06T04:43:51.144Z,1016.63
2023-05-06T04:44:54.084Z,1016.65
2023-05-06T04:46:29.635Z,1016.63
2023-05-06T04:47:32.785Z,1016.64
2023-05-06T04:48:36.092Z,1016.67
2023-05-06T04:50:10.811Z,1016.66
2023-05-06T04:51:13.679Z,1016.67
2023-05-06T04:52:16.557Z,1016.65
2023-05-06T04:53:51.161Z,1016.66
2023-05-06T04:54:56.843Z,1016.67
2023-05-06T04:56:00.056Z,1016.68
2023-05-06T04:57:34.616Z,1016.64
2023-05-06T04:58:37.677Z,1016.68
2023-05-06T04:59:40.715Z,1016.67
2023-05-06T05:01:26.862Z,1016.72
2023-05-06T05:02:30.493Z,1016.74
2023-05-06T05:04:06.334Z,1016.72
2023-05-06T05:05:09.445Z,1016.72
2023-05-06T05:06:12.534Z,1016.72
2023-05-06T05:07:47.346Z,1016.76
2023-05-06T05:08:50.340Z,1016.74
2023-05-06T05:09:53.073Z,1016.80
2023-05-06T05:11:27.780Z,1016.79
2023-05-06T05:12:30.633Z,1016.80
2023-05-06T05:13:33.886Z,1016.82
2023-05-06T05:15:08.874Z,1016.87
2023-05-06T05:16:12.252Z,1016.81
2023-05-06T05:17:15.867Z,1016.82
2023-05-06T05:18:50.851Z,1016.84
2023-05-06T05:19:55.875Z,1016.88
2023-05-06T05:20:58.872Z,1016.89
2023-05-06T05:22:33.949Z,1016.89
2023-05-06T05:23:36.861Z,1016.81
2023-05-06T05:24:39.868Z,1016.88
2023-05-06T05:26:14.454Z,1016.92
2023-05-06T05:27:17.248Z,1016.89
2023-05-06T05:28:20.069Z,1016.92
2023-05-06T05:29:54.900Z,1016.91
2023-05-06T05:30:58.004Z,1016.92
2023-05-06T05:32:02.368Z,1016.92
2023-05-06T05:33:37.239Z,1016.93
2023-05-06T05:34:40.443Z,1016.89
2023-05-06T05:35:43.478Z,1016.93
2023-05-06T05:37:18.509Z,1016.93
2023-05-06T05:38:21.362Z,1016.97
2023-05-06T05:39:24.399Z,1017.01
2023-05-06T05:40:59.225Z,1017.03
2023-05-06T05:42:03.705Z,1017.00
2023-05-06T05:43:06.673Z,1017.03
2023-05-06T05:44:41.556Z,1017.09
2023-05-06T05:45:44.557Z,1017.06
2023-05-06T05:46:48.164Z,1017.07
2023-05-06T05:48:23.206Z,1017.07
2023-05-06T05:49:26.073Z,1017.06
2023-05-06T05:50:29.179Z,1017.11
2023-05-06T05:52:04.031Z,1017.10
2023-05-06T05:53:06.979Z,1017.13
2023-05-06T05:54:10.159Z,1017.16
2023-05-06T05:55:44.903Z,1017.14
2023-05-06T05:56:47.839Z,1017.17
2023-05-06T05:57:50.848Z,1017.17
2023-05-06T05:59:25.539Z,1017.17
2023-05-06T06:00:23.578Z,1017.11
2023-05-06T06:01:26.486Z,1017.14
2023-05-06T06:02:29.702Z,1017.18
2023-05-06T06:04:06.174Z,1017.15
2023-05-06T06:05:09.809Z,1017.17
2023-05-06T06:06:13.124Z,1017.17
2023-05-06T06:07:48.278Z,1017.14
2023-05-06T06:08:54.170Z,1017.20
2023-05-06T06:09:57.544Z,1017.16
2023-05-06T06:11:32.341Z,1017.21
2023-05-06T06:12:35.459Z,1017.17
2023-05-06T06:13:40.371Z,1017.17
2023-05-06T06:15:15.507Z,1017.16
2023-05-06T06:16:18.494Z,1017.16
2023-05-06T06:17:21.732Z,1017.16
2023-05-06T06:18:56.862Z,1017.14
2023-05-06T06:19:59.904Z,1017.08
2023-05-06T06:21:04.753Z,1017.10
2023-05-06T06:22:39.540Z,1017.11
2023-05-06T06:23:42.537Z,1017.10
2023-05-06T06:24:45.564Z,1017.07
2023-05-06T06:26:23.496Z,1017.09
2023-05-06T06:27:26.645Z,1017.11
2023-05-06T06:28:29.545Z,1017.13
2023-05-06T06:30:04.160Z,1017.12
2023-05-06T06:31:07.120Z,1017.12
2023-05-06T06:32:10.715Z,1017.12
2023-05-06T06:33:45.752Z,1017.14
2023-05-06T06:34:48.855Z,1017.12
2023-05-06T06:35:51.817Z,1017.18
2023-05-06T06:37:26.556Z,1017.15
2023-05-06T06:38:29.636Z,1017.21
2023-05-06T06:39:32.608Z,1017.20
2023-05-06T06:41:07.259Z,1017.18
2023-05-06T06:42:10.190Z,1017.18
2023-05-06T06:43:13.429Z,1017.13
2023-05-06T06:44:48.212Z,1017.11
2023-05-06T06:45:51.181Z,1017.12
2023-05-06T06:46:54.474Z,1017.17
2023-05-06T06:48:29.304Z,1017.16
2023-05-06T06:49:32.054Z,1017.15
2023-05-06T06:50:34.950Z,1017.19
2023-05-06T06:52:09.680Z,1017.21
2023-05-06T06:53:12.538Z,1017.17
2023-05-06T06:54:15.588Z,1017.21
2023-05-06T06:55:50.534Z,1017.22
2023-05-06T06:56:53.502Z,1017.17
2023-05-06T06:57:56.528Z,1017.23
2023-05-06T06:59:31.443Z,1017.21
2023-05-06T07:00:23.056Z,1017.25
2023-05-06T07:01:26.334Z,1017.25
2023-05-06T07:02:29.917Z,1017.27
2023-05-06T07:04:07.131Z,1017.25
2023-05-06T07:05:10.693Z,1017.27
2023-05-06T07:06:13.928Z,1017.28
2023-05-06T07:07:48.386Z,1017.27
2023-05-06T07:08:51.231Z,1017.28
2023-05-06T07:09:54.155Z,1017.27
2023-05-06T07:11:28.899Z,1017.25
2023-05-06T07:12:31.879Z,1017.26
2023-05-06T07:13:35.391Z,1017.24
2023-05-06T07:15:10.753Z,1017.26
2023-05-06T07:16:14.343Z,1017.23
2023-05-06T07:17:17.842Z,1017.27
2023-05-06T07:18:52.829Z,1017.28
2023-05-06T07:19:55.722Z,1017.29
2023-05-06T07:20:58.657Z,1017.30
2023-05-06T07:22:33.654Z,1017.30
2023-05-06T07:23:38.069Z,1017.31
2023-05-06T07:24:40.946Z,1017.31
2023-05-06T07:26:15.877Z,1017.33
2023-05-06T07:27:18.721Z,1017.33
2023-05-06T07:28:22.022Z,1017.31
2023-05-06T07:29:56.585Z,1017.32
2023-05-06T07:30:59.702Z,1017.29
2023-05-06T07:32:02.774Z,1017.31
2023-05-06T07:33:37.666Z,1017.31
2023-05-06T07:34:40.576Z,1017.27
2023-05-06T07:35:43.714Z,1017.29
2023-05-06T07:37:18.383Z,1017.29
2023-05-06T07:38:21.252Z,1017.28
2023-05-06T07:39:24.121Z,1017.31
2023-05-06T07:40:58.734Z,1017.28
2023-05-06T07:42:01.521Z,1017.31
2023-05-06T07:43:04.365Z,1017.30
2023-05-06T07:44:39.090Z,1017.32
2023-05-06T07:45:42.195Z,1017.29
2023-05-06T07:46:45.649Z,1017.30
2023-05-06T07:48:23.655Z,1017.32
2023-05-06T07:49:26.600Z,1017.32
2023-05-06T07:50:29.806Z,1017.33
2023-05-06T07:52:04.929Z,1017.31
2023-05-06T07:53:07.950Z,1017.34
2023-05-06T07:54:10.848Z,1017.35
2023-05-06T07:55:46.569Z,1017.34
2023-05-06T07:56:49.309Z,1017.35
2023-05-06T07:57:52.211Z,1017.37
2023-05-06T07:59:26.934Z,1017.38
2023-05-06T08:00:23.519Z,1017.38
2023-05-06T08:01:26.464Z,1017.43
2023-05-06T08:02:29.708Z,1017.39
2023-05-06T08:04:05.771Z,1017.40
2023-05-06T08:05:09.738Z,1017.42
2023-05-06T08:06:12.862Z,1017.41
2023-05-06T08:07:47.988Z,1017.40
2023-05-06T08:08:50.852Z,1017.38
2023-05-06T08:09:53.712Z,1017.40
2023-05-06T08:11:30.789Z,1017.41
2023-05-06T08:12:33.823Z,1017.41
2023-05-06T08:13:36.964Z,1017.44
2023-05-06T08:15:11.858Z,1017.46
2023-05-06T08:16:14.966Z,1017.45
2023-05-06T08:17:20.806Z,1017.49
2023-05-06T08:19:08.758Z,1017.46
2023-05-06T08:20:11.831Z,1017.55
2023-05-06T08:21:14.832Z,1017.51
2023-05-06T08:22:49.942Z,1017.53
2023-05-06T08:23:53.053Z,1017.57
2023-05-06T08:24:56.086Z,1017.56
2023-05-06T08:26:31.331Z,1017.58
2023-05-06T08:27:34.182Z,1017.57
2023-05-06T08:28:37.058Z,1017.53
2023-05-06T08:30:11.692Z,1017.53
2023-05-06T08:31:14.657Z,1017.50
2023-05-06T08:32:18.227Z,1017.54
2023-05-06T08:33:54.583Z,1017.51
2023-05-06T08:34:57.801Z,1017.53
2023-05-06T08:36:01.399Z,1017.53
2023-05-06T08:37:36.436Z,1017.55
2023-05-06T08:38:39.325Z,1017.53
2023-05-06T08:39:42.467Z,1017.57
2023-05-06T08:41:18.230Z,1017.58
2023-05-06T08:42:21.384Z,1017.59
2023-05-06T08:43:24.288Z,1017.58
2023-05-06T08:44:58.879Z,1017.56
2023-05-06T08:46:02.336Z,1017.57
2023-05-06T08:47:05.717Z,1017.57
2023-05-06T08:48:40.302Z,1017.54
2023-05-06T08:49:43.171Z,1017.54
2023-05-06T08:50:45.990Z,1017.51
2023-05-06T08:52:20.679Z,1017.48
2023-05-06T08:53:23.767Z,1017.51
2023-05-06T08:54:26.678Z,1017.48
2023-05-06T08:56:01.366Z,1017.47
2023-05-06T08:57:04.333Z,1017.49
2023-05-06T08:58:09.802Z,1017.51
2023-05-06T08:59:44.642Z,1017.53
2023-05-06T09:01:26.254Z,1017.48
2023-05-06T09:02:30.100Z,1017.51
2023-05-06T09:04:07.321Z,1017.46
2023-05-06T09:05:10.905Z,1017.44
2023-05-06T09:06:14.074Z,1017.43
2023-05-06T09:07:48.928Z,1017.40
2023-05-06T09:08:51.710Z,1017.41
2023-05-06T09:09:54.719Z,1017.38
2023-05-06T09:11:29.916Z,1017.38
2023-05-06T09:12:32.901Z,1017.39
2023-05-06T09:13:36.028Z,1017.35
2023-05-06T09:15:11.162Z,1017.33
2023-05-06T09:16:14.365Z,1017.32
2023-05-06T09:17:17.828Z,1017.30
2023-05-06T09:18:53.054Z,1017.30
2023-05-06T09:19:55.963Z,1017.31
2023-05-06T09:21:00.776Z,1017.36
2023-05-06T09:22:35.891Z,1017.37
2023-05-06T09:23:38.784Z,1017.36
2023-05-06T09:24:41.753Z,1017.35
2023-05-06T09:26:16.463Z,1017.36
2023-05-06T09:27:21.999Z,1017.37
2023-05-06T09:28:25.042Z,1017.36
2023-05-06T09:30:00.291Z,1017.31
2023-05-06T09:31:03.496Z,1017.29
2023-05-06T09:32:06.797Z,1017.27
2023-05-06T09:33:42.109Z,1017.29
2023-05-06T09:34:45.052Z,1017.29
2023-05-06T09:35:48.004Z,1017.28
2023-05-06T09:37:22.633Z,1017.27
2023-05-06T09:38:25.625Z,1017.26
2023-05-06T09:39:28.671Z,1017.25
2023-05-06T09:41:03.268Z,1017.25
2023-05-06T09:42:06.372Z,1017.24
2023-05-06T09:43:09.495Z,1017.23
2023-05-06T09:44:44.534Z,1017.22
2023-05-06T09:45:48.634Z,1017.20
2023-05-06T09:46:52.261Z,1017.19
2023-05-06T09:48:27.419Z,1017.20
2023-05-06T09:49:30.393Z,1017.18
2023-05-06T09:50:33.630Z,1017.22
2023-05-06T09:52:08.422Z,1017.16
2023-05-06T09:53:11.265Z,1017.13
2023-05-06T09:54:14.211Z,1017.13
2023-05-06T09:55:49.242Z,1017.08
2023-05-06T09:56:52.241Z,1017.12
2023-05-06T09:57:58.113Z,1017.08
2023-05-06T09:59:32.885Z,1017.08
2023-05-06T10:00:23.399Z,1017.08
2023-05-06T10:01:43.510Z,1017.07
2023-05-06T10:02:47.973Z,1017.10
2023-05-06T10:04:26.353Z,1017.05
2023-05-06T10:05:31.176Z,1017.04
2023-05-06T10:06:34.700Z,1017.03
2023-05-06T10:08:09.782Z,1017.01
2023-05-06T10:09:12.919Z,1017.00
2023-05-06T10:10:15.793Z,1017.02
2023-05-06T10:11:53.442Z,1017.05
2023-05-06T10:12:56.356Z,1017.01
2023-05-06T10:13:59.629Z,1016.99
2023-05-06T10:15:34.563Z,1016.95
2023-05-06T10:16:38.026Z,1016.94
2023-05-06T10:17:41.358Z,1016.94
2023-05-06T10:19:16.860Z,1016.94
2023-05-06T10:20:19.943Z,1016.93
2023-05-06T10:21:22.932Z,1016.92
2023-05-06T10:22:57.722Z,1016.93
2023-05-06T10:24:01.087Z,1016.90
2023-05-06T10:25:04.153Z,1016.92
2023-05-06T10:26:39.245Z,1016.89
2023-05-06T10:27:42.141Z,1016.85
2023-05-06T10:28:47.019Z,1016.89
2023-05-06T10:30:21.996Z,1016.87
2023-05-06T10:31:25.659Z,1016.85
2023-05-06T10:32:29.135Z,1016.82
2023-05-06T10:34:04.284Z,1016.78
2023-05-06T10:35:07.367Z,1016.75
2023-05-06T10:36:10.723Z,1016.79
2023-05-06T10:37:45.667Z,1016.72
2023-05-06T10:38:48.754Z,1016.73
2023-05-06T10:39:53.757Z,1016.72
2023-05-06T10:41:28.678Z,1016.73
2023-05-06T10:42:31.515Z,1016.73
2023-05-06T10:43:34.578Z,1016.73
2023-05-06T10:45:10.031Z,1016.72
2023-05-06T10:46:13.504Z,1016.74
2023-05-06T10:47:16.552Z,1016.73
2023-05-06T10:48:51.512Z,1016.74
2023-05-06T10:49:54.596Z,1016.74
2023-05-06T10:50:58.162Z,1016.74
2023-05-06T10:52:33.159Z,1016.78
2023-05-06T10:53:36.121Z,1016.78
2023-05-06T10:54:39.216Z,1016.76
2023-05-06T10:56:14.729Z,1016.73
2023-05-06T10:57:18.065Z,1016.70
2023-05-06T10:58:21.222Z,1016.73
2023-05-06T10:59:56.021Z,1016.67
2023-05-06T11:01:26.701Z,1016.62
2023-05-06T11:02:30.491Z,1016.67
2023-05-06T11:04:09.018Z,1016.65
2023-05-06T11:05:12.088Z,1016.61
2023-05-06T11:06:15.267Z,1016.64
2023-05-06T11:07:50.465Z,1016.62
2023-05-06T11:08:53.464Z,1016.58
2023-05-06T11:09:56.531Z,1016.59
2023-05-06T11:11:31.715Z,1016.51
2023-05-06T11:12:34.925Z,1016.53
2023-05-06T11:13:38.387Z,1016.53
2023-05-06T11:15:14.513Z,1016.54
2023-05-06T11:16:17.465Z,1016.57
2023-05-06T11:17:21.906Z,1016.56
2023-05-06T11:18:56.867Z,1016.48
2023-05-06T11:19:59.664Z,1016.53
2023-05-06T11:21:03.402Z,1016.54
2023-05-06T11:22:38.273Z,1016.57
2023-05-06T11:23:41.387Z,1016.53
2023-05-06T11:24:44.616Z,1016.54
2023-05-06T11:26:19.387Z,1016.58
2023-05-06T11:27:22.591Z,1016.56
2023-05-06T11:28:25.609Z,1016.57
2023-05-06T11:30:00.634Z,1016.57
2023-05-06T11:31:04.211Z,1016.58
2023-05-06T11:32:07.630Z,1016.58
2023-05-06T11:33:42.653Z,1016.49
2023-05-06T11:34:45.452Z,1016.52
2023-05-06T11:35:48.460Z,1016.54
2023-05-06T11:37:23.288Z,1016.48
2023-05-06T11:38:26.439Z,1016.45
2023-05-06T11:39:29.335Z,1016.48
2023-05-06T11:41:10.433Z,1016.47
2023-05-06T11:42:13.522Z,1016.48
2023-05-06T11:43:16.718Z,1016.45
2023-05-06T11:44:52.196Z,1016.45
2023-05-06T11:45:55.408Z,1016.45
2023-05-06T11:46:58.708Z,1016.41
2023-05-06T11:48:33.964Z,1016.38
2023-05-06T11:49:37.021Z,1016.39
2023-05-06T11:50:40.099Z,1016.38
2023-05-06T11:52:14.799Z,1016.36
2023-05-06T11:53:17.793Z,1016.39
2023-05-06T11:54:20.733Z,1016.35
2023-05-06T11:55:55.563Z,1016.37
2023-05-06T11:56:58.567Z,1016.38
2023-05-06T11:58:01.490Z,1016.38
2023-05-06T11:59:36.437Z,1016.43
2023-05-06T12:01:26.397Z,1016.41
2023-05-06T12:02:29.886Z,1016.39
2023-05-06T12:04:06.433Z,1016.35
2023-05-06T12:05:10.112Z,1016.36
2023-05-06T12:06:13.121Z,1016.37
2023-05-06T12:07:48.406Z,1016.40
2023-05-06T12:09:06.102Z,1016.39
2023-05-06T12:10:09.604Z,1016.30
2023-05-06T12:11:45.075Z,1016.35
2023-05-06T12:12:48.480Z,1016.38
2023-05-06T12:13:51.676Z,1016.39
2023-05-06T12:15:26.622Z,1016.37
2023-05-06T12:16:29.913Z,1016.34
2023-05-06T12:17:33.578Z,1016.37
2023-05-06T12:19:08.778Z,1016.37
2023-05-06T12:20:12.095Z,1016.36
2023-05-06T12:21:15.242Z,1016.38
2023-05-06T12:22:50.358Z,1016.31
2023-05-06T12:23:53.442Z,1016.36
2023-05-06T12:24:56.815Z,1016.34
2023-05-06T12:26:32.189Z,1016.30
2023-05-06T12:27:35.074Z,1016.35
2023-05-06T12:28:38.058Z,1016.37
2023-05-06T12:30:13.154Z,1016.33
2023-05-06T12:31:16.454Z,1016.34
2023-05-06T12:32:19.965Z,1016.32
2023-05-06T12:33:57.117Z,1016.28
2023-05-06T12:35:01.182Z,1016.28
2023-05-06T12:36:04.185Z,1016.24
2023-05-06T12:37:38.982Z,1016.24
2023-05-06T12:38:41.924Z,1016.24
2023-05-06T12:39:45.152Z,1016.22
2023-05-06T12:41:22.625Z,1016.19
2023-05-06T12:42:25.681Z,1016.25
2023-05-06T12:43:28.809Z,1016.22
2023-05-06T12:45:03.809Z,1016.19
2023-05-06T12:46:09.530Z,1016.23
2023-05-06T12:47:12.630Z,1016.28
2023-05-06T12:48:47.732Z,1016.27
2023-05-06T12:49:50.791Z,1016.28
2023-05-06T12:50:53.720Z,1016.30
2023-05-06T12:52:28.849Z,1016.32
2023-05-06T12:53:31.949Z,1016.27
2023-05-06T12:54:35.230Z,1016.22
2023-05-06T12:56:10.290Z,1016.20
2023-05-06T12:57:13.211Z,1016.22
2023-05-06T12:58:16.286Z,1016.22
2023-05-06T12:59:50.952Z,1016.24
2023-05-06T13:01:27.133Z,1016.19
2023-05-06T13:02:30.739Z,1016.14
2023-05-06T13:04:06.518Z,1016.16
2023-05-06T13:05:09.348Z,1016.15
2023-05-06T13:06:12.456Z,1016.14
2023-05-06T13:07:47.695Z,1016.14
2023-05-06T13:08:50.874Z,1016.12
2023-05-06T13:09:54.193Z,1016.13
2023-05-06T13:11:30.254Z,1016.12
2023-05-06T13:12:33.549Z,1016.09
2023-05-06T13:13:37.094Z,1016.06
2023-05-06T13:15:12.030Z,1016.07
2023-05-06T13:16:15.042Z,1016.08
2023-05-06T13:17:18.963Z,1016.07
2023-05-06T13:18:53.935Z,1016.10
2023-05-06T13:20:17.955Z,1016.07
2023-05-06T13:21:21.028Z,1016.06
2023-05-06T13:23:05.892Z,1016.09
2023-05-06T13:24:09.108Z,1016.05
2023-05-06T13:25:12.194Z,1016.05
2023-05-06T13:26:52.025Z,1016.00
2023-05-06T13:27:55.285Z,1016.05
2023-05-06T13:28:58.200Z,1016.03
2023-05-06T13:30:33.474Z,1016.06
2023-05-06T13:31:36.942Z,1016.04
2023-05-06T13:32:40.206Z,1016.04
2023-05-06T13:34:15.430Z,1016.07
2023-05-06T13:35:18.673Z,1016.06
2023-05-06T13:36:21.547Z,1016.03
2023-05-06T13:37:56.454Z,1016.04
2023-05-06T13:38:59.563Z,1016.03
2023-05-06T13:40:02.648Z,1016.02
2023-05-06T13:41:37.929Z,1016.01
2023-05-06T13:42:41.053Z,1016.02
2023-05-06T13:43:44.188Z,1015.98
2023-05-06T13:45:19.163Z,1015.96
2023-05-06T13:46:22.626Z,1015.98
2023-05-06T13:47:26.089Z,1015.97
2023-05-06T13:49:01.321Z,1016.00
2023-05-06T13:50:04.495Z,1015.99
2023-05-06T13:51:07.850Z,1015.98
2023-05-06T13:52:42.494Z,1015.97
2023-05-06T13:53:45.452Z,1015.98
2023-05-06T13:54:48.668Z,1015.99
2023-05-06T13:56:23.890Z,1015.97
2023-05-06T13:57:26.757Z,1015.94
2023-05-06T13:58:29.971Z,1016.00
2023-05-06T14:00:23.476Z,1015.97
2023-05-06T14:01:27.173Z,1015.92
2023-05-06T14:02:30.647Z,1015.92
2023-05-06T14:04:06.488Z,1015.88
2023-05-06T14:05:10.130Z,1015.86
2023-05-06T14:06:14.259Z,1015.89
2023-05-06T14:07:51.915Z,1015.87
2023-05-06T14:08:54.967Z,1015.88
2023-05-06T14:09:58.104Z,1015.89
2023-05-06T14:11:32.836Z,1015.86
2023-05-06T14:12:35.838Z,1015.82
2023-05-06T14:13:39.146Z,1015.80
2023-05-06T14:15:14.405Z,1015.82
2023-05-06T14:16:17.530Z,1015.77
2023-05-06T14:17:21.091Z,1015.79
2023-05-06T14:18:56.506Z,1015.78
2023-05-06T14:19:59.736Z,1015.76
2023-05-06T14:21:03.296Z,1015.73
2023-05-06T14:22:38.579Z,1015.67
2023-05-06T14:23:41.973Z,1015.67
2023-05-06T14:24:45.131Z,1015.69
2023-05-06T14:26:19.942Z,1015.67
2023-05-06T14:27:23.385Z,1015.64
2023-05-06T14:28:26.512Z,1015.67
2023-05-06T14:30:01.530Z,1015.65
2023-05-06T14:31:07.218Z,1015.61
2023-05-06T14:32:10.554Z,1015.64
2023-05-06T14:33:45.669Z,1015.61
2023-05-06T14:34:49.143Z,1015.63
2023-05-06T14:35:52.444Z,1015.59
2023-05-06T14:37:27.498Z,1015.57
2023-05-06T14:38:30.685Z,1015.60
2023-05-06T14:39:34.161Z,1015.58
2023-05-06T14:41:10.953Z,1015.56
2023-05-06T14:42:13.996Z,1015.58
2023-05-06T14:43:17.125Z,1015.54
2023-05-06T14:44:51.727Z,1015.58
2023-05-06T14:45:55.322Z,1015.55
2023-05-06T14:46:58.900Z,1015.54
2023-05-06T14:48:34.316Z,1015.52
2023-05-06T14:49:37.497Z,1015.53
2023-05-06T14:50:40.680Z,1015.52
2023-05-06T14:52:16.105Z,1015.49
2023-05-06T14:53:19.462Z,1015.47
2023-05-06T14:54:22.601Z,1015.47
2023-05-06T14:55:58.233Z,1015.47
2023-05-06T14:57:01.379Z,1015.45